Onde está Mendro en Portugal?

Mendro está situado na região Evora em Portugal!

Buscar o nome de uma cidade:

Mendak, Mendiya-Plage, Mendenkan, Mendarrin Lake, Mendling

Aqui você vai encontrar a localização de Mendro em um mapa.
Para ver como ele atualmente parece, abaixo estão algumas fotos da região, com webcams online.
Você também pode encontrar a distância para as principais cidades da região e de cidades do resto do Portugal.

Todos os lugares do mundo chamado .

new

Onde está Mendro no mapa?


Webcams perto Mendro

Sines Municipality: Praia de Sao Torpes.


Sines Municipality: Praia de Sao Torpes - Dia
Actual
Sines Municipality: Praia de Sao Torpes - Actual

Vasco Carão > South: Garrocheira, Benavente - Airport.


Vasco Carão > South: Garrocheira, Benavente - Airport - Dia
Actual
Vasco Carão > South: Garrocheira, Benavente - Airport - Actual

Benavente > North-East: AIrport, METAR: BENAV 180005Z 36004KT 17/14 Q1015.


Benavente > North-East: AIrport, METAR: BENAV 180005Z 36004KT 17/14 Q1015 - Dia
Actual
Benavente > North-East: AIrport, METAR: BENAV 180005Z 36004KT 17/14 Q1015 - Actual

Webcams provided by webcams.travel

Distâncias

Onde está Mendro em relação a outros lugares?

Top 10 cidades em Evora e distância de Mendro.

Cidade#Populaçãokmmilhas
Évora1458513723
Montemor-o-Novo2128546138
Vendas Novas3112487949
Estremoz493496641
Reguengos de Monsaraz572172415
Redondo658454528
Vila Viçosa754846339
Borba845866440
Adaval9-4025
Agua d' Alte10-5031

Top 10 cidades em Portugal e distância de Mendro.

Cidade # Populaçãokmmilhas
Lisbon151779813483
Porto2249630330205
Amadora317885614389
Braga4121393370230
Setúbal511710910867
Coimbra6106580224139
Queluz710339814590
Funchal8980411041647
Vila Nova de Gaia970810328204
Loures106623014288